Time;durP1;ratioP1;P1;durP2;ratioP2;P2;SDS_P1;SDS_P2;PMS_P1;PMS_P2;Temp;Humidity;BMP_temperature;BMP_pressure;BME280_temperature;BME280_humidity;BME280_pressure;Samples;Min_cycle;Max_cycle;Signal;HPM_P1;HPM_P2
2022/07/01 00:00:29;;;;;;;0.60;0.53;;;;;;;17.79;100.00;100376.91;4963288;28;22287;-77
2022/07/01 00:02:54;;;;;;;0.77;0.50;;;;;;;17.78;100.00;100377.81;4954134;28;20265;-77
2022/07/01 00:05:19;;;;;;;0.43;0.43;;;;;;;17.77;100.00;100370.84;4959386;28;20601;-77
2022/07/01 00:07:46;;;;;;;0.43;0.43;;;;;;;17.75;100.00;100370.06;4960032;28;20182;-77
2022/07/01 00:10:12;;;;;;;0.50;0.50;;;;;;;17.75;100.00;100384.94;4966369;28;20178;-77
2022/07/01 00:12:37;;;;;;;1.20;0.57;;;;;;;17.73;100.00;100386.75;4966227;28;20264;-77
2022/07/01 00:15:03;;;;;;;0.60;0.50;;;;;;;17.71;100.00;100389.41;4959179;28;20698;-77
2022/07/01 00:17:29;;;;;;;1.47;0.60;;;;;;;17.71;100.00;100388.56;4957122;28;20682;-77
2022/07/01 00:19:54;;;;;;;0.70;0.50;;;;;;;17.70;100.00;100381.63;4959908;28;20186;-77
2022/07/01 00:22:20;;;;;;;0.50;0.50;;;;;;;17.68;100.00;100384.31;4959721;28;20265;-77
2022/07/01 00:24:46;;;;;;;1.67;0.60;;;;;;;17.65;100.00;100374.78;4961488;28;20306;-77
2022/07/01 00:27:12;;;;;;;0.70;0.60;;;;;;;17.62;100.00;100367.03;4963746;28;20209;-77
2022/07/01 00:29:38;;;;;;;0.73;0.60;;;;;;;17.62;100.00;100371.44;4955041;28;20728;-77
2022/07/01 00:32:04;;;;;;;0.60;0.60;;;;;;;17.62;100.00;100376.66;4961378;28;20250;-77
2022/07/01 00:34:29;;;;;;;0.40;0.40;;;;;;;17.60;100.00;100375.88;4962687;28;20202;-77
2022/07/01 00:36:54;;;;;;;0.80;0.60;;;;;;;17.59;100.00;100380.25;4972240;28;20732;-77
2022/07/01 00:39:20;;;;;;;0.67;0.63;;;;;;;17.58;100.00;100385.53;4957573;28;20191;-77
2022/07/01 00:41:45;;;;;;;0.80;0.60;;;;;;;17.57;100.00;100395.16;4954125;28;20172;-77
2022/07/01 00:44:19;;;;;;;0.50;0.40;;;;;;;17.57;100.00;100402.13;4952711;28;20403;-77
2022/07/01 00:46:49;;;;;;;0.50;0.50;;;;;;;17.52;100.00;100403.19;4958585;28;20823;-78
2022/07/01 00:49:15;;;;;;;0.60;0.40;;;;;;;17.51;100.00;100418.91;4973040;28;20179;-77
2022/07/01 00:51:40;;;;;;;1.53;0.60;;;;;;;17.49;100.00;100416.38;4978000;28;20198;-77
2022/07/01 00:54:06;;;;;;;0.80;0.50;;;;;;;17.51;100.00;100413.69;4958030;28;20562;-77
2022/07/01 00:56:31;;;;;;;0.57;0.57;;;;;;;17.52;100.00;100412.78;4951906;28;20772;-77
2022/07/01 00:58:57;;;;;;;0.60;0.60;;;;;;;17.56;100.00;100403.03;4955678;28;20592;-77
2022/07/01 01:01:22;;;;;;;1.00;0.70;;;;;;;17.56;100.00;100398.69;4960090;28;20273;-77
2022/07/01 01:03:48;;;;;;;0.87;0.80;;;;;;;17.57;100.00;100410.84;4960427;28;20240;-77
2022/07/01 01:06:15;;;;;;;0.60;0.53;;;;;;;17.59;100.00;100405.56;4959371;28;20239;-77
2022/07/01 01:08:41;;;;;;;0.77;0.50;;;;;;;17.56;100.00;100398.69;4965418;28;20178;-77
2022/07/01 01:11:07;;;;;;;1.57;0.73;;;;;;;17.55;100.00;100396.09;4960312;28;20228;-77
2022/07/01 01:13:32;;;;;;;0.87;0.80;;;;;;;17.54;100.00;100391.81;4964930;28;21199;-77
2022/07/01 01:15:58;;;;;;;1.03;0.50;;;;;;;17.53;100.00;100390.94;4964596;28;20213;-78
2022/07/01 01:18:23;;;;;;;0.60;0.60;;;;;;;17.51;100.00;100388.38;4957959;28;20753;-76
2022/07/01 01:20:49;;;;;;;0.70;0.60;;;;;;;17.49;100.00;100390.19;4952343;28;20643;-77
2022/07/01 01:23:14;;;;;;;0.83;0.70;;;;;;;17.50;100.00;100397.16;4958120;28;20214;-77
2022/07/01 01:25:39;;;;;;;0.90;0.90;;;;;;;17.50;100.00;100402.38;4959498;28;20300;-77
2022/07/01 01:28:05;;;;;;;0.50;0.50;;;;;;;17.52;100.00;100407.53;4976818;28;20193;-77
2022/07/01 01:30:30;;;;;;;2.37;0.67;;;;;;;17.52;100.00;100416.25;4960047;28;20186;-77
2022/07/01 01:32:56;;;;;;;1.27;0.70;;;;;;;17.51;100.00;100405.84;4953675;28;20215;-77
2022/07/01 01:35:22;;;;;;;0.63;0.60;;;;;;;17.51;100.00;100400.59;4954959;28;20198;-77
2022/07/01 01:37:48;;;;;;;1.27;0.60;;;;;;;17.50;100.00;100401.50;4963258;28;20196;-77
2022/07/01 01:40:14;;;;;;;1.07;0.77;;;;;;;17.50;100.00;100402.38;4953332;28;20252;-76
2022/07/01 01:42:40;;;;;;;0.83;0.70;;;;;;;17.51;100.00;100395.38;4969476;28;20185;-76
2022/07/01 01:45:06;;;;;;;0.90;0.57;;;;;;;17.49;100.00;100399.78;4958555;28;20633;-76
2022/07/01 01:47:31;;;;;;;1.20;0.67;;;;;;;17.50;100.00;100393.66;4962173;28;20666;-77
2022/07/01 01:49:57;;;;;;;0.83;0.73;;;;;;;17.50;100.00;100386.69;4974710;28;20185;-77
2022/07/01 01:52:22;;;;;;;1.07;0.70;;;;;;;17.47;100.00;100378.09;4972034;28;20286;-77
2022/07/01 01:54:48;;;;;;;0.83;0.80;;;;;;;17.47;100.00;100368.47;4952896;28;20208;-77
2022/07/01 01:57:14;;;;;;;1.00;0.67;;;;;;;17.47;100.00;100367.63;4952580;28;20280;-77
2022/07/01 01:59:39;;;;;;;1.10;0.90;;;;;;;17.46;100.00;100371.16;4956156;28;20187;-77
2022/07/01 02:02:05;;;;;;;1.60;0.80;;;;;;;17.48;100.00;100364.06;4957723;28;20186;-77
2022/07/01 02:04:31;;;;;;;0.87;0.73;;;;;;;17.48;100.00;100372.78;4967051;28;20217;-76
2022/07/01 02:06:56;;;;;;;1.57;0.80;;;;;;;17.48;100.00;100378.03;4954456;28;20187;-76
2022/07/01 02:09:21;;;;;;;1.17;0.73;;;;;;;17.49;100.00;100387.59;4958403;28;20185;-77
2022/07/01 02:11:47;;;;;;;0.93;0.90;;;;;;;17.47;100.00;100381.56;4962452;28;20209;-77
2022/07/01 02:14:12;;;;;;;0.83;0.70;;;;;;;17.47;100.00;100388.56;4959331;28;20214;-76
2022/07/01 02:16:37;;;;;;;1.27;0.80;;;;;;;17.47;100.00;100393.78;4964160;28;20237;-77
2022/07/01 02:19:03;;;;;;;0.93;0.83;;;;;;;17.47;100.00;100394.63;4957950;28;20198;-77
2022/07/01 02:21:28;;;;;;;0.80;0.67;;;;;;;17.46;100.00;100390.31;4952354;28;20261;-76
2022/07/01 02:23:54;;;;;;;0.60;0.57;;;;;;;17.47;100.00;100388.56;4966738;28;20185;-76
2022/07/01 02:26:19;;;;;;;0.60;0.60;;;;;;;17.46;100.00;100381.63;4965245;28;20178;-76
2022/07/01 02:28:45;;;;;;;0.80;0.67;;;;;;;17.45;100.00;100377.28;4956332;28;20174;-76
2022/07/01 02:31:10;;;;;;;0.57;0.57;;;;;;;17.42;100.00;100387.88;4963904;28;20234;-76
2022/07/01 02:33:35;;;;;;;1.23;0.70;;;;;;;17.42;100.00;100388.69;4962798;28;20651;-77
2022/07/01 02:36:01;;;;;;;1.67;0.77;;;;;;;17.41;100.00;100387.00;4960869;28;20202;-76
2022/07/01 02:38:26;;;;;;;0.50;0.50;;;;;;;17.42;100.00;100385.25;4959419;28;20185;-76
2022/07/01 02:40:52;;;;;;;1.27;0.70;;;;;;;17.41;100.00;100383.53;4959042;28;20269;-76
2022/07/01 02:43:18;;;;;;;0.70;0.70;;;;;;;17.41;100.00;100368.69;4953411;28;20552;-77
2022/07/01 02:45:43;;;;;;;0.73;0.60;;;;;;;17.41;100.00;100366.06;4960152;28;20214;-77
2022/07/01 02:48:09;;;;;;;1.53;0.70;;;;;;;17.43;100.00;100366.03;4963202;28;20196;-76
2022/07/01 02:50:34;;;;;;;0.90;0.60;;;;;;;17.44;100.00;100380.81;4960110;28;20190;-77
2022/07/01 02:52:59;;;;;;;0.90;0.70;;;;;;;17.41;100.00;100388.78;4961574;28;20605;-77
2022/07/01 02:55:25;;;;;;;0.67;0.63;;;;;;;17.41;100.00;100400.06;4960978;28;20214;-77
2022/07/01 02:57:51;;;;;;;1.30;0.70;;;;;;;17.35;100.00;100395.91;4958942;28;20540;-76
2022/07/01 03:00:19;;;;;;;1.67;0.83;;;;;;;17.34;100.00;100395.97;4961009;28;20276;-77
2022/07/01 03:02:44;;;;;;;0.60;0.60;;;;;;;17.32;100.00;100382.94;4961292;28;20233;-77
2022/07/01 03:05:10;;;;;;;0.47;0.47;;;;;;;17.31;100.00;100359.47;4956689;28;20222;-77
2022/07/01 03:07:37;;;;;;;1.70;0.60;;;;;;;17.32;100.00;100358.56;4963540;28;20197;-76
2022/07/01 03:10:04;;;;;;;0.60;0.60;;;;;;;17.32;100.00;100371.63;4959385;28;20186;-76
2022/07/01 03:12:29;;;;;;;0.80;0.60;;;;;;;17.31;100.00;100375.16;4961994;28;20218;-76
2022/07/01 03:14:59;;;;;;;1.00;0.70;;;;;;;17.30;100.00;100374.31;4959299;28;20232;-76
2022/07/01 03:17:26;;;;;;;0.60;0.57;;;;;;;17.30;100.00;100390.00;4961483;28;20192;-77
2022/07/01 03:19:52;;;;;;;0.97;0.87;;;;;;;17.30;100.00;100387.41;4958156;28;20197;-76
2022/07/01 03:22:20;;;;;;;1.00;0.60;;;;;;;17.29;100.00;100390.03;4955807;28;20184;-77
2022/07/01 03:24:45;;;;;;;1.50;0.70;;;;;;;17.29;100.00;100405.75;4961959;28;20790;-77
2022/07/01 03:27:10;;;;;;;0.80;0.80;;;;;;;17.26;100.00;100411.94;4956450;28;20305;-77
2022/07/01 03:29:36;;;;;;;0.80;0.80;;;;;;;17.24;100.00;100405.91;4960947;28;20279;-77
2022/07/01 03:32:02;;;;;;;0.50;0.50;;;;;;;17.21;100.00;100408.63;4962168;28;20643;-77
2022/07/01 03:34:27;;;;;;;0.63;0.63;;;;;;;17.20;100.00;100413.00;4955220;28;21085;-78
2022/07/01 03:36:53;;;;;;;2.00;0.90;;;;;;;17.22;100.00;100415.56;4951508;28;20198;-77
2022/07/01 03:39:18;;;;;;;0.80;0.80;;;;;;;17.19;100.00;100423.50;4959255;28;20328;-77
2022/07/01 03:41:44;;;;;;;1.83;0.90;;;;;;;17.14;100.00;100425.44;4962872;28;20216;-76
2022/07/01 03:44:09;;;;;;;0.70;0.70;;;;;;;17.13;100.00;100415.91;4960253;28;20225;-77
2022/07/01 03:46:35;;;;;;;1.67;1.00;;;;;;;17.17;100.00;100397.44;4959143;28;20190;-78
2022/07/01 03:49:01;;;;;;;1.70;0.90;;;;;;;17.14;100.00;100409.75;4962624;28;20194;-77
2022/07/01 03:51:27;;;;;;;0.87;0.80;;;;;;;17.08;100.00;100423.91;4963897;28;20217;-77
2022/07/01 03:56:37;;;;;;;0.70;0.70;;;;;;;16.97;100.00;100453.00;4952787;28;20205;-78
2022/07/01 03:59:02;;;;;;;1.73;1.00;;;;;;;16.97;100.00;100460.84;4964028;28;20640;-76
2022/07/01 04:01:28;;;;;;;1.73;1.00;;;;;;;16.95;100.00;100467.88;4955341;28;20186;-74
2022/07/01 04:03:53;;;;;;;1.10;1.00;;;;;;;16.94;100.00;100465.31;4957877;28;20577;-77
2022/07/01 04:06:19;;;;;;;2.07;1.23;;;;;;;16.92;100.00;100468.81;4962653;28;20201;-77
2022/07/01 04:08:46;;;;;;;2.23;1.23;;;;;;;16.92;100.00;100471.44;4960618;28;20190;-79
2022/07/01 04:11:12;;;;;;;1.50;1.20;;;;;;;16.91;100.00;100469.72;4965587;28;20938;-78
2022/07/01 04:13:38;;;;;;;1.47;1.37;;;;;;;16.91;100.00;100463.63;4958755;28;20302;-76
2022/07/01 04:16:04;;;;;;;1.90;1.40;;;;;;;16.92;100.00;100466.22;4961678;28;20308;-76
2022/07/01 04:18:30;;;;;;;2.97;1.90;;;;;;;16.91;100.00;100464.50;4960952;28;20198;-77
2022/07/01 04:23:40;;;;;;;1.70;1.60;;;;;;;16.94;100.00;100474.00;4957937;28;20182;-76
2022/07/01 04:26:05;;;;;;;1.70;1.60;;;;;;;16.92;100.00;100465.34;4960912;28;20220;-77
2022/07/01 04:28:30;;;;;;;2.03;1.93;;;;;;;16.93;100.00;100459.22;4959565;28;20837;-77
2022/07/01 04:30:56;;;;;;;2.10;2.00;;;;;;;16.90;100.00;100483.69;4978281;28;20208;-76
2022/07/01 04:33:21;;;;;;;1.80;1.70;;;;;;;16.90;100.00;100485.44;4957638;28;20209;-76
2022/07/01 04:35:47;;;;;;;1.80;1.70;;;;;;;16.90;100.00;100477.59;4973821;28;20236;-77
2022/07/01 04:38:12;;;;;;;1.70;1.47;;;;;;;16.90;100.00;100482.81;4961103;28;20301;-76
2022/07/01 04:40:37;;;;;;;2.00;1.80;;;;;;;16.88;100.00;100472.44;4967885;28;20273;-76
2022/07/01 04:43:03;;;;;;;2.03;1.60;;;;;;;16.86;100.00;100469.00;4959705;28;20703;-76
2022/07/01 04:45:28;;;;;;;1.60;1.50;;;;;;;16.88;100.00;100474.16;4963075;28;20202;-77
2022/07/01 04:47:53;;;;;;;1.83;1.73;;;;;;;16.90;100.00;100483.69;4965496;28;20623;-76
2022/07/01 04:50:19;;;;;;;1.80;1.70;;;;;;;16.93;100.00;100487.97;4966255;28;20204;-76
2022/07/01 04:52:44;;;;;;;2.30;2.10;;;;;;;16.96;100.00;100487.03;4968082;28;20198;-76
2022/07/01 04:55:10;;;;;;;2.70;2.50;;;;;;;16.96;100.00;100489.66;4961460;28;20302;-77
2022/07/01 04:57:35;;;;;;;2.30;2.20;;;;;;;16.97;100.00;100476.53;4957180;28;20277;-76
2022/07/01 05:00:00;;;;;;;2.13;2.03;;;;;;;16.99;100.00;100463.41;4962167;28;20250;-77
2022/07/01 05:02:26;;;;;;;2.10;1.90;;;;;;;17.00;100.00;100463.38;4960539;28;20190;-76
2022/07/01 05:04:51;;;;;;;2.10;2.00;;;;;;;16.98;100.00;100465.19;4957423;28;20299;-76
2022/07/01 05:07:28;;;;;;;2.40;2.20;;;;;;;17.00;100.00;100475.56;4965878;28;20196;-77
2022/07/01 05:09:55;;;;;;;2.40;2.20;;;;;;;17.01;100.00;100480.78;4953801;28;20187;-76
2022/07/01 05:12:21;;;;;;;2.50;2.10;;;;;;;17.00;100.00;100470.34;4969271;28;20216;-77
2022/07/01 05:14:47;;;;;;;2.47;2.27;;;;;;;17.00;100.00;100473.84;4959620;28;20206;-77
2022/07/01 05:17:13;;;;;;;2.60;2.40;;;;;;;17.00;100.00;100481.69;4956655;28;20249;-77
2022/07/01 05:22:22;;;;;;;3.27;2.07;;;;;;;16.99;100.00;100459.06;4953269;28;20238;-76
2022/07/01 05:24:48;;;;;;;2.40;1.97;;;;;;;16.98;100.00;100457.34;4962140;28;20222;-76
2022/07/01 05:27:13;;;;;;;2.13;1.93;;;;;;;16.99;100.00;100473.88;4962479;28;20186;-76
2022/07/01 05:29:38;;;;;;;2.07;1.87;;;;;;;17.00;100.00;100484.28;4964896;28;20216;-76
2022/07/01 05:32:04;;;;;;;1.70;1.47;;;;;;;17.02;100.00;100484.22;4967002;28;20198;-76
2022/07/01 05:34:30;;;;;;;2.37;1.87;;;;;;;17.00;100.00;100484.28;4960546;28;20597;-76
2022/07/01 05:36:56;;;;;;;1.77;1.67;;;;;;;17.03;100.00;100478.94;4963883;28;20186;-77
2022/07/01 05:39:21;;;;;;;1.67;1.53;;;;;;;17.04;100.00;100477.19;4961336;28;20707;-76
2022/07/01 05:41:47;;;;;;;1.97;1.40;;;;;;;17.05;100.00;100471.91;4960062;28;20227;-76
2022/07/01 05:44:12;;;;;;;1.73;1.50;;;;;;;17.06;100.00;100473.63;4962763;28;20228;-76
2022/07/01 05:46:37;;;;;;;1.40;1.30;;;;;;;17.06;100.00;100476.22;4965534;28;20189;-76
2022/07/01 05:49:03;;;;;;;1.30;1.20;;;;;;;17.08;100.00;100496.25;4959241;28;20186;-76
2022/07/01 05:51:29;;;;;;;1.23;1.13;;;;;;;17.05;100.00;100503.28;4959406;28;20240;-75
2022/07/01 05:53:56;;;;;;;1.70;1.40;;;;;;;17.09;100.00;100503.19;4958547;28;20186;-75
2022/07/01 05:56:21;;;;;;;1.50;1.40;;;;;;;17.12;100.00;100505.69;4955309;28;20190;-77
2022/07/01 05:58:47;;;;;;;1.97;1.40;;;;;;;17.17;100.00;100517.72;4954965;28;20197;-76
2022/07/01 06:01:13;;;;;;;1.60;1.50;;;;;;;17.25;100.00;100520.09;4961337;28;20182;-76
2022/07/01 06:03:38;;;;;;;1.43;1.33;;;;;;;17.33;100.00;100528.50;4964891;28;20199;-76
2022/07/01 06:06:04;;;;;;;1.90;1.70;;;;;;;17.40;100.00;100517.84;4966293;28;20202;-76
2022/07/01 06:08:29;;;;;;;2.30;1.73;;;;;;;17.45;100.00;100516.78;4977613;28;20185;-76
2022/07/01 06:10:54;;;;;;;1.90;1.60;;;;;;;17.52;100.00;100509.59;4951745;28;20631;-76
2022/07/01 06:13:20;;;;;;;2.20;1.40;;;;;;;17.62;100.00;100504.91;4951635;28;20183;-77
2022/07/01 06:15:45;;;;;;;2.23;1.70;;;;;;;17.65;100.00;100515.25;4955660;28;20218;-77
2022/07/01 06:18:11;;;;;;;2.40;1.60;;;;;;;17.67;100.00;100513.44;4977877;28;20185;-76
2022/07/01 06:20:36;;;;;;;1.77;1.67;;;;;;;17.68;100.00;100513.38;4961950;28;20178;-77
2022/07/01 06:23:01;;;;;;;2.30;2.10;;;;;;;17.64;100.00;100521.41;4961772;28;20176;-76
2022/07/01 06:25:27;;;;;;;2.00;1.80;;;;;;;17.60;100.00;100520.66;4952811;28;20198;-77
2022/07/01 06:27:52;;;;;;;2.73;2.00;;;;;;;17.56;100.00;100518.19;4965438;28;20183;-76
2022/07/01 06:30:17;;;;;;;2.20;1.43;;;;;;;17.54;100.00;100520.03;4969333;28;20260;-76
2022/07/01 06:32:43;;;;;;;1.90;1.70;;;;;;;17.50;100.00;100527.97;4970812;28;20213;-76
2022/07/01 06:35:08;;;;;;;2.23;1.93;;;;;;;17.51;100.00;100529.69;4978341;28;22198;-76
2022/07/01 06:37:35;;;;;;;1.80;1.70;;;;;;;17.53;100.00;100524.38;4962819;28;20653;-76
2022/07/01 06:40:06;;;;;;;1.83;1.53;;;;;;;17.57;100.00;100531.22;4961865;28;20188;-77
2022/07/01 06:42:32;;;;;;;2.97;1.90;;;;;;;17.62;100.00;100537.13;4958173;28;20259;-75
2022/07/01 06:44:57;;;;;;;2.10;1.97;;;;;;;17.63;100.00;100540.63;4966212;28;20198;-80
2022/07/01 06:47:22;;;;;;;2.10;1.90;;;;;;;17.65;100.00;100536.19;4964588;28;20197;-76
2022/07/01 06:49:48;;;;;;;1.93;1.70;;;;;;;17.67;100.00;100542.25;4970369;28;20190;-75
2022/07/01 06:52:14;;;;;;;2.30;1.80;;;;;;;17.71;100.00;100537.75;4970215;28;20713;-77
2022/07/01 06:54:39;;;;;;;1.80;1.50;;;;;;;17.69;100.00;100537.81;4964539;28;20206;-77
2022/07/01 06:57:05;;;;;;;1.70;1.60;;;;;;;17.70;100.00;100536.03;4963871;28;20177;-76
2022/07/01 06:59:31;;;;;;;3.03;1.60;;;;;;;17.69;100.00;100543.03;4967790;28;20206;-76
2022/07/01 07:01:57;;;;;;;2.30;1.80;;;;;;;17.72;100.00;100540.28;4972832;28;20247;-75
2022/07/01 07:04:22;;;;;;;1.93;1.40;;;;;;;17.76;100.00;100548.91;4986231;28;20204;-75
2022/07/01 07:06:47;;;;;;;1.30;1.20;;;;;;;17.82;100.00;100546.94;4985592;28;20186;-75
2022/07/01 07:09:13;;;;;;;1.50;1.40;;;;;;;17.90;100.00;100546.66;4989073;28;20193;-75
2022/07/01 07:11:38;;;;;;;3.03;1.60;;;;;;;17.98;100.00;100555.13;4987420;28;20199;-77
2022/07/01 07:14:03;;;;;;;2.03;1.40;;;;;;;18.04;100.00;100558.44;4958887;28;20195;-76
2022/07/01 07:16:29;;;;;;;1.83;1.60;;;;;;;18.07;100.00;100555.72;4953455;28;20224;-76
2022/07/01 07:18:54;;;;;;;2.53;1.93;;;;;;;18.05;100.00;100553.16;4962565;28;20183;-76
2022/07/01 07:21:19;;;;;;;1.90;1.80;;;;;;;18.00;100.00;100544.59;4961915;28;20230;-76
2022/07/01 07:23:45;;;;;;;2.00;1.73;;;;;;;18.00;100.00;100544.59;4955507;28;20196;-75
2022/07/01 07:26:11;;;;;;;1.63;1.53;;;;;;;18.08;100.00;100553.03;4961245;28;20214;-76
2022/07/01 07:28:36;;;;;;;2.10;1.80;;;;;;;18.19;100.00;100533.44;4958906;28;20186;-76
2022/07/01 07:31:02;;;;;;;4.47;2.10;;;;;;;18.24;100.00;100528.91;4960693;28;20214;-76
2022/07/01 07:33:27;;;;;;;3.23;2.03;;;;;;;18.22;100.00;100518.50;4962198;28;20193;-75
2022/07/01 07:35:52;;;;;;;2.80;2.00;;;;;;;18.16;100.00;100515.22;4967523;28;20215;-76
2022/07/01 07:38:18;;;;;;;2.90;2.00;;;;;;;18.09;100.00;100528.56;4981141;28;20639;-75
2022/07/01 07:40:43;;;;;;;2.73;2.10;;;;;;;18.03;100.00;100547.09;4965245;28;20190;-75
2022/07/01 07:43:09;;;;;;;2.20;1.80;;;;;;;17.96;100.00;100559.53;4958044;28;20265;-76
2022/07/01 07:45:35;;;;;;;2.73;1.90;;;;;;;17.88;100.00;100564.19;4950692;28;20214;-76
2022/07/01 07:48:01;;;;;;;2.67;1.80;;;;;;;17.80;100.00;100571.44;4966229;28;20209;-75
2022/07/01 07:50:27;;;;;;;1.77;1.50;;;;;;;17.72;100.00;100558.63;4962981;28;20601;-76
2022/07/01 07:52:52;;;;;;;2.90;2.13;;;;;;;17.68;100.00;100560.50;4963919;28;20213;-74
2022/07/01 07:55:18;;;;;;;1.90;1.70;;;;;;;17.64;100.00;100573.75;4966427;28;20212;-75
2022/07/01 07:57:43;;;;;;;3.00;2.00;;;;;;;17.56;100.00;100576.63;4968628;28;20174;-76
2022/07/01 08:00:11;;;;;;;2.00;1.77;;;;;;;17.50;100.00;100561.97;4957290;28;20249;-75
2022/07/01 08:02:37;;;;;;;1.63;1.53;;;;;;;17.46;100.00;100568.22;4962367;28;20193;-75
2022/07/01 08:05:03;;;;;;;2.47;1.87;;;;;;;17.41;100.00;100572.72;4975210;28;20225;-76
2022/07/01 08:07:28;;;;;;;2.37;1.87;;;;;;;17.34;100.00;100585.16;4959097;28;20250;-76
2022/07/01 08:09:55;;;;;;;4.97;4.47;;;;;;;17.34;100.00;100592.16;4951285;28;20265;-75
2022/07/01 08:12:21;;;;;;;9.43;8.27;;;;;;;17.37;100.00;100603.38;4957823;28;20212;-75
2022/07/01 08:14:46;;;;;;;6.03;5.43;;;;;;;17.42;100.00;100600.59;4961924;28;20213;-76
2022/07/01 08:17:12;;;;;;;3.07;2.80;;;;;;;17.46;100.00;100590.91;4961694;28;20201;-76
2022/07/01 08:19:37;;;;;;;4.23;2.70;;;;;;;17.51;100.00;100600.31;4976816;28;20190;-75
2022/07/01 08:22:03;;;;;;;2.77;2.30;;;;;;;17.58;100.00;100602.72;4960238;28;20254;-76
2022/07/01 08:24:31;;;;;;;2.60;2.17;;;;;;;17.64;100.00;100607.75;4949948;28;20246;-76
2022/07/01 08:26:57;;;;;;;2.27;1.77;;;;;;;17.70;100.00;100611.94;4957157;28;20229;-76
2022/07/01 08:29:22;;;;;;;2.20;1.80;;;;;;;17.76;100.00;100609.13;4963693;28;20201;-76
2022/07/01 08:31:48;;;;;;;2.00;1.63;;;;;;;17.90;100.00;100614.75;4956453;28;20659;-75
2022/07/01 08:34:13;;;;;;;2.37;2.00;;;;;;;18.05;100.00;100615.16;4961893;28;20286;-76
2022/07/01 08:36:38;;;;;;;2.73;1.80;;;;;;;18.22;100.00;100620.66;4968750;28;20225;-75
2022/07/01 08:39:04;;;;;;;2.50;1.90;;;;;;;18.44;100.00;100632.97;4964124;28;20195;-76
2022/07/01 08:41:30;;;;;;;1.87;1.77;;;;;;;18.61;100.00;100634.13;4960718;28;20202;-76
2022/07/01 08:43:55;;;;;;;2.13;1.70;;;;;;;18.71;100.00;100641.59;4960393;28;20559;-76
2022/07/01 08:46:26;;;;;;;1.47;1.30;;;;;;;18.89;100.00;100634.78;4958809;28;20187;-75
2022/07/01 08:48:52;;;;;;;2.47;1.70;;;;;;;19.18;100.00;100638.06;4965901;28;20666;-75
2022/07/01 08:51:17;;;;;;;1.57;1.43;;;;;;;19.50;100.00;100630.69;4957540;28;20240;-76
2022/07/01 08:53:42;;;;;;;2.00;1.60;;;;;;;19.75;100.00;100629.66;4978023;28;20650;-76
2022/07/01 08:58:52;;;;;;;3.30;1.53;;;;;;;20.05;100.00;100636.34;4963283;28;20623;-77
2022/07/01 09:01:25;;;;;;;1.40;1.20;;;;;;;20.08;100.00;100631.81;4960353;28;20213;-76
2022/07/01 09:03:53;;;;;;;1.83;1.30;;;;;;;20.00;100.00;100628.66;4954800;28;20883;-76
2022/07/01 09:06:26;;;;;;;1.43;1.33;;;;;;;19.87;100.00;100630.13;4956368;28;20213;-77
2022/07/01 09:08:51;;;;;;;2.60;1.83;;;;;;;19.76;100.00;100633.16;4950833;28;20354;-76
2022/07/01 09:11:19;;;;;;;2.20;1.90;;;;;;;19.75;100.00;100636.69;4963501;28;20685;-76
2022/07/01 09:13:45;;;;;;;1.43;1.33;;;;;;;19.90;100.00;100632.59;4962690;28;20560;-76
2022/07/01 09:16:16;;;;;;;1.53;1.43;;;;;;;20.23;100.00;100629.44;4959614;28;20220;-76
2022/07/01 09:19:02;;;;;;;2.27;2.00;;;;;;;20.73;100.00;100625.44;4981943;28;20177;-75
2022/07/01 09:21:30;;;;;;;1.80;1.53;;;;;;;21.26;98.29;100630.91;4954617;28;20912;-76
2022/07/01 09:23:56;;;;;;;2.87;1.77;;;;;;;21.48;97.10;100622.81;4980023;28;20209;-77
2022/07/01 09:26:21;;;;;;;3.70;2.13;;;;;;;21.59;95.05;100630.19;4955890;28;20193;-76
2022/07/01 09:28:54;;;;;;;2.90;2.07;;;;;;;21.65;93.72;100634.31;4957386;28;20187;-76
2022/07/01 09:31:20;;;;;;;2.43;1.80;;;;;;;21.66;93.82;100634.25;4968102;28;20225;-77
2022/07/01 09:33:45;;;;;;;1.90;1.67;;;;;;;21.81;93.71;100639.66;4981916;28;20173;-76
2022/07/01 09:36:15;;;;;;;3.33;1.80;;;;;;;22.11;92.94;100631.13;4959366;28;20288;-75
2022/07/01 09:38:47;;;;;;;2.53;1.93;;;;;;;22.38;92.16;100626.19;4961819;28;20879;-77
2022/07/01 09:41:13;;;;;;;3.43;2.13;;;;;;;22.64;91.11;100623.97;4965230;28;20190;-76
2022/07/01 09:43:39;;;;;;;2.57;1.90;;;;;;;22.84;90.07;100629.00;4984186;28;20226;-77
2022/07/01 09:46:09;;;;;;;4.97;2.97;;;;;;;23.25;88.67;100630.31;4953095;28;20217;-77
2022/07/01 09:48:34;;;;;;;5.10;4.30;;;;;;;23.62;87.91;100623.81;4961230;28;20893;-77
2022/07/01 09:51:06;;;;;;;3.77;3.30;;;;;;;23.75;85.67;100627.44;4954682;28;20240;-77
2022/07/01 09:53:31;;;;;;;4.57;3.50;;;;;;;23.79;85.58;100617.56;4966223;28;20189;-76
2022/07/01 09:55:57;;;;;;;3.60;3.23;;;;;;;23.94;85.41;100621.06;4958822;28;20227;-76
2022/07/01 09:58:23;;;;;;;3.10;2.43;;;;;;;24.19;84.64;100618.69;4956531;28;20189;-77
2022/07/01 10:00:48;;;;;;;1.90;1.80;;;;;;;24.57;83.95;100626.97;4955070;28;20197;-77
2022/07/01 10:03:17;;;;;;;2.33;1.70;;;;;;;24.81;83.11;100621.97;4965302;28;20199;-76
2022/07/01 10:05:50;;;;;;;1.67;1.50;;;;;;;25.03;82.59;100629.38;4976724;28;20273;-77
2022/07/01 10:08:31;;;;;;;2.87;1.80;;;;;;;25.08;81.86;100624.63;4957702;28;20186;-77
2022/07/01 10:11:36;;;;;;;2.10;1.70;;;;;;;25.01;82.07;100633.06;4960223;28;20192;-76
2022/07/01 10:14:06;;;;;;;1.60;1.50;;;;;;;25.02;81.77;100632.97;4962516;28;20288;-77
2022/07/01 10:16:32;;;;;;;1.50;1.40;;;;;;;25.00;81.30;100637.50;4957999;28;20214;-77
2022/07/01 10:18:59;;;;;;;1.90;1.30;;;;;;;24.93;81.86;100645.00;4955004;28;20205;-77
2022/07/01 10:21:30;;;;;;;1.40;1.30;;;;;;;24.93;81.71;100637.06;4964349;28;20177;-77
2022/07/01 10:24:16;;;;;;;1.20;1.10;;;;;;;25.03;81.29;100637.31;4967629;28;20272;-77
2022/07/01 10:26:42;;;;;;;1.30;1.20;;;;;;;24.85;81.81;100642.00;4962007;28;20190;-77
2022/07/01 10:29:38;;;;;;;2.10;1.43;;;;;;;24.41;79.81;100638.50;4964856;28;20189;-76
2022/07/01 10:32:25;;;;;;;1.90;1.17;;;;;;;24.01;80.58;100644.41;4951960;28;20213;-76
2022/07/01 10:35:02;;;;;;;1.47;1.27;;;;;;;23.92;81.61;100638.78;4958576;28;20213;-75
2022/07/01 10:37:27;;;;;;;1.53;1.43;;;;;;;23.95;78.61;100641.25;4955727;28;20182;-76
2022/07/01 10:40:00;;;;;;;2.53;1.20;;;;;;;23.75;78.23;100635.34;4975798;28;20190;-77
2022/07/01 10:42:32;;;;;;;1.30;1.20;;;;;;;23.69;79.30;100641.84;4956160;28;20201;-76
2022/07/01 10:45:10;;;;;;;2.07;1.20;;;;;;;23.58;77.90;100642.50;4963949;28;20256;-76
2022/07/01 10:47:36;;;;;;;1.97;1.37;;;;;;;23.25;78.92;100647.91;4961774;28;20213;-76
2022/07/01 10:50:15;;;;;;;1.57;1.23;;;;;;;23.05;79.34;100643.72;4966774;28;20206;-77
2022/07/01 10:53:02;;;;;;;2.60;1.30;;;;;;;23.11;79.65;100646.03;4964919;28;20697;-76
2022/07/01 10:55:38;;;;;;;1.40;1.20;;;;;;;23.20;79.64;100644.66;4970049;28;20670;-76
2022/07/01 10:58:04;;;;;;;1.40;1.23;;;;;;;23.25;78.86;100640.00;4957002;28;20198;-76
2022/07/01 11:00:34;;;;;;;1.37;1.13;;;;;;;23.33;78.75;100645.72;4974212;28;21115;-76
2022/07/01 11:03:07;;;;;;;1.17;1.07;;;;;;;23.51;78.17;100638.50;4957560;28;20656;-76
2022/07/01 11:05:35;;;;;;;1.10;1.00;;;;;;;23.72;77.53;100633.75;4965214;28;20773;-77
2022/07/01 11:08:00;;;;;;;2.33;1.20;;;;;;;23.93;76.51;100640.50;4963507;28;20225;-77
2022/07/01 11:10:26;;;;;;;2.20;1.30;;;;;;;23.95;75.49;100630.69;4975979;28;20200;-77
2022/07/01 11:12:51;;;;;;;1.20;1.10;;;;;;;24.26;76.14;100645.59;4967065;28;20573;-76
2022/07/01 11:15:17;;;;;;;1.20;1.10;;;;;;;24.44;76.02;100640.09;4968213;28;20221;-76
2022/07/01 11:17:44;;;;;;;1.63;1.17;;;;;;;24.45;76.10;100647.09;4985007;28;20221;-76
2022/07/01 11:20:10;;;;;;;3.03;1.37;;;;;;;24.27;74.72;100638.50;4963910;28;20276;-76
2022/07/01 11:22:36;;;;;;;1.43;1.10;;;;;;;24.07;75.49;100645.00;4967513;28;20273;-77
2022/07/01 11:25:04;;;;;;;1.20;0.97;;;;;;;23.90;75.67;100645.03;4971760;28;20309;-76
2022/07/01 11:27:30;;;;;;;2.33;1.10;;;;;;;23.65;74.61;100642.13;4969198;28;20731;-77